createdAt,value
2022-12-11T00:01:20.222Z,-3.97
2022-12-11T00:03:50.614Z,-4.05
2022-12-11T00:06:22.585Z,-4.07
2022-12-11T00:08:54.488Z,-4.01
2022-12-11T00:11:24.921Z,-4.16
2022-12-11T00:13:55.352Z,-4.07
2022-12-11T00:16:27.232Z,-4.07
2022-12-11T00:18:57.703Z,-4.21
2022-12-11T00:21:27.959Z,-4.05
2022-12-11T00:23:58.353Z,-4.12
2022-12-11T00:26:28.564Z,-4.13
2022-12-11T00:28:59.226Z,-4.26
2022-12-11T00:31:29.422Z,-4.23
2022-12-11T00:34:01.829Z,-4.28
2022-12-11T00:36:32.059Z,-4.31
2022-12-11T00:39:03.143Z,-4.17
2022-12-11T00:41:33.492Z,-4.25
2022-12-11T00:44:05.007Z,-4.23
2022-12-11T00:46:35.506Z,-4.20
2022-12-11T00:49:05.662Z,-4.25
2022-12-11T00:51:35.815Z,-4.33
2022-12-11T00:54:06.789Z,-4.26
2022-12-11T00:56:36.951Z,-4.27
2022-12-11T00:59:07.432Z,-4.28
2022-12-11T01:01:37.672Z,-4.20
2022-12-11T01:04:08.004Z,-4.32
2022-12-11T01:06:39.517Z,-4.34
2022-12-11T01:09:28.083Z,-4.21
2022-12-11T01:11:58.147Z,-4.24
2022-12-11T01:18:10.132Z,-4.21
2022-12-11T01:20:41.608Z,-4.15
2022-12-11T01:23:13.455Z,-4.12
2022-12-11T01:25:44.115Z,-4.16
2022-12-11T01:28:14.552Z,-4.17
2022-12-11T01:30:44.810Z,-4.27
2022-12-11T01:33:15.051Z,-4.19
2022-12-11T01:35:45.302Z,-4.19
2022-12-11T01:38:15.472Z,-4.21
2022-12-11T01:40:51.488Z,-4.17
2022-12-11T01:43:21.642Z,-4.12
2022-12-11T01:45:51.964Z,-4.15
2022-12-11T01:48:25.758Z,-4.13
2022-12-11T01:51:00.157Z,-4.07
2022-12-11T01:53:32.729Z,-4.07
2022-12-11T01:56:03.676Z,-4.16
2022-12-11T01:58:41.139Z,-4.10
2022-12-11T02:01:18.847Z,-4.24
2022-12-11T02:03:49.398Z,-4.20
2022-12-11T02:06:40.909Z,-4.15
2022-12-11T02:09:17.722Z,-4.18
2022-12-11T02:12:10.970Z,-4.13
2022-12-11T02:14:56.907Z,-4.13
2022-12-11T02:17:34.032Z,-4.18
2022-12-11T02:20:15.888Z,-4.10
2022-12-11T02:23:07.719Z,-4.04
2022-12-11T02:25:56.733Z,-3.98
2022-12-11T02:29:08.104Z,-3.94
2022-12-11T02:31:54.619Z,-3.97
2022-12-11T02:34:46.675Z,-3.80
2022-12-11T02:37:21.155Z,-3.81
2022-12-11T02:39:56.057Z,-3.80
2022-12-11T02:42:30.956Z,-3.70
2022-12-11T02:45:03.308Z,-3.63
2022-12-11T02:47:33.952Z,-3.51
2022-12-11T02:50:10.170Z,-3.45
2022-12-11T02:52:43.375Z,-3.54
2022-12-11T02:55:16.193Z,-3.42
2022-12-11T02:57:51.798Z,-3.39
2022-12-11T03:00:22.128Z,-3.41
2022-12-11T03:02:52.437Z,-3.29
2022-12-11T03:05:22.866Z,-3.28
2022-12-11T03:07:53.278Z,-3.22
2022-12-11T03:10:24.307Z,-3.16
2022-12-11T03:12:57.435Z,-3.19
2022-12-11T03:15:41.802Z,-3.16
2022-12-11T03:18:16.250Z,-3.06
2022-12-11T03:21:09.643Z,-3.06
2022-12-11T03:24:11.169Z,-3.04
2022-12-11T03:26:54.514Z,-3.10
2022-12-11T03:29:39.746Z,-3.13
2022-12-11T03:32:15.306Z,-3.20
2022-12-11T03:34:58.519Z,-3.29
2022-12-11T03:37:34.327Z,-3.29
2022-12-11T03:40:11.152Z,-3.32
2022-12-11T03:42:44.727Z,-3.47
2022-12-11T03:45:18.135Z,-3.45
2022-12-11T03:47:50.250Z,-3.44
2022-12-11T03:50:22.795Z,-3.51
2022-12-11T03:52:54.743Z,-3.32
2022-12-11T03:55:25.783Z,-3.37
2022-12-11T03:57:56.201Z,-3.33
2022-12-11T04:00:26.629Z,-3.52
2022-12-11T04:03:16.209Z,-3.39
2022-12-11T04:05:51.782Z,-3.29
2022-12-11T04:08:22.768Z,-3.41
2022-12-11T04:11:11.435Z,-3.28
2022-12-11T04:13:42.360Z,-3.28
2022-12-11T04:16:12.605Z,-3.38
2022-12-11T04:19:01.234Z,-3.29
2022-12-11T04:21:49.962Z,-3.25
2022-12-11T04:24:20.136Z,-3.21
2022-12-11T04:26:50.450Z,-3.19
2022-12-11T04:29:20.624Z,-3.21
2022-12-11T04:31:51.003Z,-3.20
2022-12-11T04:34:21.227Z,-3.34
2022-12-11T04:36:51.577Z,-3.23
2022-12-11T04:39:21.718Z,-3.42
2022-12-11T04:41:51.940Z,-3.41
2022-12-11T04:44:22.134Z,-3.35
2022-12-11T04:46:52.382Z,-3.29
2022-12-11T04:49:22.635Z,-3.36
2022-12-11T04:51:52.830Z,-3.31
2022-12-11T04:54:22.972Z,-3.44
2022-12-11T04:56:53.096Z,-3.40
2022-12-11T04:59:23.219Z,-3.52
2022-12-11T05:01:53.495Z,-3.72
2022-12-11T05:04:23.918Z,-3.77
2022-12-11T05:06:54.112Z,-3.77
2022-12-11T05:09:24.330Z,-3.89
2022-12-11T05:11:54.790Z,-3.83
2022-12-11T05:14:26.319Z,-3.78
2022-12-11T05:16:56.542Z,-3.79
2022-12-11T05:19:27.829Z,-3.77
2022-12-11T05:21:57.950Z,-3.79
2022-12-11T05:24:28.103Z,-3.87
2022-12-11T05:26:58.221Z,-3.82
2022-12-11T05:29:28.418Z,-3.83
2022-12-11T05:31:59.045Z,-3.81
2022-12-11T05:34:29.253Z,-3.98
2022-12-11T05:36:59.479Z,-3.96
2022-12-11T05:39:30.387Z,-3.83
2022-12-11T05:42:00.529Z,-3.93
2022-12-11T05:44:30.663Z,-3.95
2022-12-11T05:47:00.947Z,-3.93
2022-12-11T05:49:31.330Z,-3.99
2022-12-11T05:52:01.583Z,-4.08
2022-12-11T05:54:31.775Z,-3.94
2022-12-11T05:57:01.976Z,-4.03
2022-12-11T05:59:32.165Z,-3.94
2022-12-11T06:02:02.550Z,-3.98
2022-12-11T06:04:33.409Z,-3.98
2022-12-11T06:07:03.619Z,-3.98
2022-12-11T06:09:33.799Z,-4.00
2022-12-11T06:12:04.433Z,-3.98
2022-12-11T06:14:34.687Z,-3.99
2022-12-11T06:17:04.885Z,-3.96
2022-12-11T06:19:37.011Z,-3.93
2022-12-11T06:22:07.500Z,-3.84
2022-12-11T06:24:37.898Z,-3.89
2022-12-11T06:27:08.398Z,-3.80
2022-12-11T06:29:38.654Z,-3.75
2022-12-11T06:32:08.876Z,-3.78
2022-12-11T06:34:39.135Z,-3.81
2022-12-11T06:37:09.472Z,-3.83
2022-12-11T06:39:39.779Z,-3.83
2022-12-11T06:42:09.910Z,-3.77
2022-12-11T06:44:40.115Z,-3.77
2022-12-11T06:47:10.234Z,-3.67
2022-12-11T06:49:40.370Z,-3.70
2022-12-11T06:52:14.999Z,-3.74
2022-12-11T06:54:48.631Z,-3.75
2022-12-11T06:57:19.531Z,-3.73
2022-12-11T06:59:49.766Z,-3.78
2022-12-11T07:02:20.715Z,-3.81
2022-12-11T07:04:55.028Z,-3.77
2022-12-11T07:07:25.738Z,-3.85
2022-12-11T07:09:55.938Z,-3.90
2022-12-11T07:12:26.113Z,-3.82
2022-12-11T07:14:56.272Z,-3.79
2022-12-11T07:17:26.505Z,-3.80
2022-12-11T07:19:56.765Z,-3.77
2022-12-11T07:22:26.986Z,-3.78
2022-12-11T07:24:57.389Z,-3.80
2022-12-11T07:27:28.486Z,-3.90
2022-12-11T07:29:59.220Z,-3.90
2022-12-11T07:32:29.951Z,-3.91
2022-12-11T07:35:00.270Z,-3.85
2022-12-11T07:37:30.482Z,-3.83
2022-12-11T07:40:00.700Z,-3.84
2022-12-11T07:42:30.861Z,-3.91
2022-12-11T07:45:01.120Z,-3.92
2022-12-11T07:47:31.369Z,-4.10
2022-12-11T07:50:01.839Z,-4.00
2022-12-11T07:52:33.860Z,-4.00
2022-12-11T07:55:04.529Z,-3.90
2022-12-11T07:57:34.719Z,-3.81
2022-12-11T08:00:05.911Z,-3.81
2022-12-11T08:02:37.620Z,-3.86
2022-12-11T08:05:08.933Z,-3.87
2022-12-11T08:07:39.339Z,-3.71
2022-12-11T08:10:09.977Z,-3.67
2022-12-11T08:12:40.110Z,-3.67
2022-12-11T08:15:10.954Z,-3.59
2022-12-11T08:17:41.378Z,-3.59
2022-12-11T08:20:11.562Z,-3.52
2022-12-11T08:22:41.718Z,-3.53
2022-12-11T08:25:12.069Z,-3.59
2022-12-11T08:27:42.670Z,-3.52
2022-12-11T08:30:13.263Z,-3.40
2022-12-11T08:32:43.454Z,-3.42
2022-12-11T08:35:13.765Z,-3.39
2022-12-11T08:37:43.989Z,-3.38
2022-12-11T08:40:14.367Z,-3.26
2022-12-11T08:42:44.535Z,-3.29
2022-12-11T08:45:14.846Z,-3.34
2022-12-11T08:47:45.091Z,-3.30
2022-12-11T08:50:15.364Z,-3.17
2022-12-11T08:52:45.954Z,-3.19
2022-12-11T08:55:16.308Z,-3.11
2022-12-11T08:57:46.456Z,-3.26
2022-12-11T09:00:19.584Z,-3.12
2022-12-11T09:02:49.842Z,-3.16
2022-12-11T09:05:20.144Z,-3.10
2022-12-11T09:07:50.419Z,-3.14
2022-12-11T09:10:21.150Z,-2.95
2022-12-11T09:12:51.470Z,-3.03
2022-12-11T09:15:21.720Z,-2.94
2022-12-11T09:17:52.696Z,-2.96
2022-12-11T09:20:22.840Z,-2.93
2022-12-11T09:22:53.012Z,-3.07
2022-12-11T09:25:23.289Z,-2.98
2022-12-11T09:27:53.497Z,-2.99
2022-12-11T09:30:23.919Z,-3.02
2022-12-11T09:32:54.047Z,-2.96
2022-12-11T09:35:24.196Z,-3.09
2022-12-11T09:37:54.325Z,-3.03
2022-12-11T09:40:24.647Z,-2.97
2022-12-11T09:43:09.909Z,-2.98
2022-12-11T09:45:40.156Z,-2.98
2022-12-11T09:48:11.487Z,-2.79
2022-12-11T09:50:42.332Z,-2.87
2022-12-11T09:53:19.060Z,-2.71
2022-12-11T09:56:16.032Z,-2.70
2022-12-11T09:59:05.376Z,-2.81
2022-12-11T10:02:06.266Z,-2.68
2022-12-11T10:04:52.019Z,-2.65
2022-12-11T10:07:30.500Z,-2.77
2022-12-11T10:10:26.665Z,-2.74
2022-12-11T10:13:17.935Z,-2.72
2022-12-11T10:15:58.076Z,-2.66
2022-12-11T10:18:31.175Z,-2.81
2022-12-11T10:21:02.700Z,-2.69
2022-12-11T10:23:45.074Z,-2.73
2022-12-11T10:26:19.550Z,-2.78
2022-12-11T10:28:50.271Z,-2.68
2022-12-11T10:31:35.340Z,-2.69
2022-12-11T10:34:13.866Z,-2.69
2022-12-11T10:36:44.103Z,-2.81
2022-12-11T10:39:20.469Z,-2.69
2022-12-11T10:41:53.723Z,-2.69
2022-12-11T10:44:29.800Z,-2.71
2022-12-11T10:47:15.718Z,-2.69
2022-12-11T10:50:01.332Z,-2.81
2022-12-11T10:52:38.339Z,-2.80
2022-12-11T10:55:22.614Z,-2.66
2022-12-11T10:58:06.017Z,-2.62
2022-12-11T11:00:37.868Z,-2.55
2022-12-11T11:03:28.657Z,-2.61
2022-12-11T11:06:05.741Z,-2.60
2022-12-11T11:08:44.705Z,-2.73
2022-12-11T11:11:24.637Z,-2.63
2022-12-11T11:14:10.064Z,-2.61
2022-12-11T11:16:43.061Z,-2.60
2022-12-11T11:19:26.626Z,-2.61
2022-12-11T11:22:01.224Z,-2.58
2022-12-11T11:24:31.422Z,-2.54
2022-12-11T11:27:13.189Z,-2.59
2022-12-11T11:29:47.741Z,-2.72
2022-12-11T11:32:41.828Z,-2.65
2022-12-11T11:35:12.244Z,-2.61
2022-12-11T11:37:47.446Z,-2.72
2022-12-11T11:40:30.930Z,-2.60
2022-12-11T11:43:08.209Z,-2.61
2022-12-11T11:45:44.781Z,-2.63
2022-12-11T11:48:40.566Z,-2.69
2022-12-11T11:51:22.861Z,-2.72
2022-12-11T11:53:55.754Z,-2.80
2022-12-11T11:56:37.721Z,-2.74
2022-12-11T11:59:18.027Z,-2.84
2022-12-11T12:01:48.343Z,-2.85
2022-12-11T12:04:18.718Z,-2.83
2022-12-11T12:07:01.144Z,-2.83
2022-12-11T12:10:01.651Z,-2.85
2022-12-11T12:13:23.927Z,-2.70
2022-12-11T12:16:00.464Z,-2.74
2022-12-11T12:18:33.857Z,-2.74
2022-12-11T12:21:35.050Z,-2.74
2022-12-11T12:24:35.243Z,-2.73
2022-12-11T12:27:51.072Z,-2.85
2022-12-11T12:30:22.858Z,-2.80
2022-12-11T12:33:21.455Z,-2.79
2022-12-11T12:36:14.279Z,-2.94
2022-12-11T12:38:54.012Z,-2.79
2022-12-11T12:41:39.379Z,-2.90
2022-12-11T12:44:20.665Z,-2.85
2022-12-11T12:46:56.631Z,-2.82
2022-12-11T12:49:49.236Z,-2.82
2022-12-11T12:52:40.986Z,-2.93
2022-12-11T12:55:23.037Z,-2.88
2022-12-11T12:57:57.997Z,-2.96
2022-12-11T13:00:31.308Z,-2.92
2022-12-11T13:03:13.576Z,-3.00
2022-12-11T13:05:55.380Z,-2.99
2022-12-11T13:08:41.128Z,-2.93
2022-12-11T13:11:15.162Z,-2.90
2022-12-11T13:14:15.478Z,-2.85
2022-12-11T13:16:47.665Z,-2.88
2022-12-11T13:19:24.012Z,-2.87
2022-12-11T13:22:06.888Z,-2.89
2022-12-11T13:24:48.045Z,-2.86
2022-12-11T13:27:40.049Z,-3.00
2022-12-11T13:30:16.093Z,-2.86
2022-12-11T13:33:00.826Z,-2.93
2022-12-11T13:35:33.279Z,-3.05
2022-12-11T13:38:29.651Z,-2.88
2022-12-11T13:41:00.281Z,-2.91
2022-12-11T13:43:33.477Z,-3.04
2022-12-11T13:46:08.162Z,-2.90
2022-12-11T13:48:44.173Z,-2.91
2022-12-11T13:51:23.717Z,-2.90
2022-12-11T13:54:16.513Z,-3.03
2022-12-11T13:56:55.382Z,-2.88
2022-12-11T13:59:29.283Z,-2.99
2022-12-11T14:02:05.766Z,-2.97
2022-12-11T14:04:37.678Z,-2.95
2022-12-11T14:07:11.942Z,-2.92
2022-12-11T14:09:47.523Z,-2.97
2022-12-11T14:12:21.586Z,-3.03
2022-12-11T14:14:57.082Z,-2.96
2022-12-11T14:17:30.644Z,-2.95
2022-12-11T14:20:03.676Z,-3.04
2022-12-11T14:22:34.141Z,-3.14
2022-12-11T14:25:25.599Z,-2.92
2022-12-11T14:27:57.750Z,-3.00
2022-12-11T14:30:32.063Z,-2.92
2022-12-11T14:33:05.683Z,-2.97
2022-12-11T14:35:40.763Z,-2.99
2022-12-11T14:38:27.304Z,-3.02
2022-12-11T14:41:03.485Z,-3.00
2022-12-11T14:43:45.680Z,-3.07
2022-12-11T14:46:24.001Z,-3.12
2022-12-11T14:49:03.728Z,-3.17
2022-12-11T14:51:39.219Z,-3.08
2022-12-11T14:54:21.430Z,-3.15
2022-12-11T14:56:51.656Z,-3.12
2022-12-11T14:59:30.123Z,-3.00
2022-12-11T15:02:21.688Z,-2.98
2022-12-11T15:05:18.445Z,-2.95
2022-12-11T15:07:59.363Z,-2.95
2022-12-11T15:10:37.560Z,-2.93
2022-12-11T15:13:09.064Z,-2.93
2022-12-11T15:15:46.916Z,-2.97
2022-12-11T15:18:41.753Z,-2.95
2022-12-11T15:21:12.931Z,-2.97
2022-12-11T15:23:46.093Z,-2.84
2022-12-11T15:26:17.405Z,-2.85
2022-12-11T15:28:47.901Z,-2.85
2022-12-11T15:31:27.444Z,-2.85
2022-12-11T15:34:03.394Z,-2.85
2022-12-11T15:36:36.775Z,-2.94
2022-12-11T15:39:09.075Z,-2.92
2022-12-11T15:41:42.394Z,-2.91
2022-12-11T15:44:21.782Z,-2.87
2022-12-11T15:46:52.031Z,-2.99
2022-12-11T15:49:24.456Z,-2.93
2022-12-11T15:51:54.975Z,-2.90
2022-12-11T15:54:25.913Z,-2.82
2022-12-11T15:56:56.382Z,-2.80
2022-12-11T15:59:26.756Z,-2.83
2022-12-11T16:01:56.970Z,-2.78
2022-12-11T16:04:27.399Z,-2.68
2022-12-11T16:06:57.666Z,-2.76
2022-12-11T16:09:27.964Z,-2.75
2022-12-11T16:11:58.240Z,-2.67
2022-12-11T16:14:28.448Z,-2.67
2022-12-11T16:16:59.044Z,-2.64
2022-12-11T16:19:30.630Z,-2.66
2022-12-11T16:22:01.059Z,-2.61
2022-12-11T16:24:32.302Z,-2.69
2022-12-11T16:27:02.996Z,-2.56
2022-12-11T16:29:38.319Z,-2.54
2022-12-11T16:32:09.143Z,-2.50
2022-12-11T16:34:39.566Z,-2.48
2022-12-11T16:37:10.076Z,-2.51
2022-12-11T16:39:42.643Z,-2.48
2022-12-11T16:42:12.839Z,-2.54
2022-12-11T16:44:44.290Z,-2.49
2022-12-11T16:47:14.788Z,-2.55
2022-12-11T16:49:45.222Z,-2.42
2022-12-11T16:52:20.528Z,-2.37
2022-12-11T16:54:52.785Z,-2.42
2022-12-11T16:57:23.141Z,-2.34
2022-12-11T16:59:53.292Z,-2.31
2022-12-11T17:02:23.902Z,-2.42
2022-12-11T17:04:54.336Z,-2.35
2022-12-11T17:07:24.596Z,-2.41
2022-12-11T17:09:54.759Z,-2.39
2022-12-11T17:12:28.020Z,-2.21
2022-12-11T17:14:58.418Z,-2.33
2022-12-11T17:17:28.724Z,-2.26
2022-12-11T17:19:59.039Z,-2.29
2022-12-11T17:22:29.607Z,-2.19
2022-12-11T17:24:59.834Z,-2.17
2022-12-11T17:27:30.336Z,-2.13
2022-12-11T17:30:00.577Z,-2.12
2022-12-11T17:32:30.975Z,-2.14
2022-12-11T17:35:02.567Z,-2.06
2022-12-11T17:37:32.845Z,-2.15
2022-12-11T17:40:03.618Z,-1.98
2022-12-11T17:42:34.086Z,-1.98
2022-12-11T17:45:05.645Z,-2.05
2022-12-11T17:47:35.945Z,-1.99
2022-12-11T17:50:07.053Z,-2.02
2022-12-11T17:52:43.819Z,-1.98
2022-12-11T17:55:14.740Z,-1.87
2022-12-11T17:57:45.386Z,-1.91
2022-12-11T18:00:15.843Z,-1.98
2022-12-11T18:02:46.053Z,-1.99
2022-12-11T18:05:16.614Z,-1.97
2022-12-11T18:07:46.808Z,-1.93
2022-12-11T18:10:17.132Z,-1.94
2022-12-11T18:12:47.438Z,-1.91
2022-12-11T18:15:19.743Z,-1.93
2022-12-11T18:17:49.957Z,-2.01
2022-12-11T18:20:20.247Z,-2.05
2022-12-11T18:22:51.248Z,-2.02
2022-12-11T18:25:23.124Z,-1.89
2022-12-11T18:27:55.413Z,-1.98
2022-12-11T18:30:26.119Z,-1.84
2022-12-11T18:32:56.326Z,-1.87
2022-12-11T18:35:26.706Z,-2.04
2022-12-11T18:37:57.477Z,-1.98
2022-12-11T18:40:28.952Z,-2.06
2022-12-11T18:42:59.175Z,-1.88
2022-12-11T18:45:29.415Z,-2.02
2022-12-11T18:47:59.632Z,-2.00
2022-12-11T18:50:29.906Z,-1.99
2022-12-11T18:53:00.574Z,-2.00
2022-12-11T18:55:30.803Z,-1.95
2022-12-11T18:58:00.915Z,-2.07
2022-12-11T19:00:31.267Z,-1.91
2022-12-11T19:03:02.225Z,-1.89
2022-12-11T19:05:32.630Z,-1.88
2022-12-11T19:08:03.791Z,-2.02
2022-12-11T19:10:34.377Z,-1.80
2022-12-11T19:13:04.562Z,-1.86
2022-12-11T19:15:39.183Z,-1.83
2022-12-11T19:18:10.235Z,-1.80
2022-12-11T19:20:55.620Z,-1.68
2022-12-11T19:23:33.159Z,-1.68
2022-12-11T19:26:03.865Z,-1.71
2022-12-11T19:28:34.980Z,-1.69
2022-12-11T19:31:09.429Z,-1.62
2022-12-11T19:33:40.891Z,-1.61
2022-12-11T19:36:13.940Z,-1.62
2022-12-11T19:38:45.466Z,-1.55
2022-12-11T19:41:27.354Z,-1.51
2022-12-11T19:43:59.687Z,-1.53
2022-12-11T19:46:30.299Z,-1.46
2022-12-11T19:49:01.457Z,-1.43
2022-12-11T19:51:38.851Z,-1.38
2022-12-11T19:54:12.881Z,-1.35
2022-12-11T19:56:43.972Z,-1.36
2022-12-11T19:59:16.985Z,-1.40
2022-12-11T20:01:48.304Z,-1.38
2022-12-11T20:04:18.763Z,-1.37
2022-12-11T20:06:49.305Z,-1.37
2022-12-11T20:09:19.738Z,-1.35
2022-12-11T20:11:50.423Z,-1.34
2022-12-11T20:14:24.135Z,-1.33
2022-12-11T20:17:13.872Z,-1.29
2022-12-11T20:19:45.000Z,-1.28
2022-12-11T20:22:15.198Z,-1.35
2022-12-11T20:24:46.186Z,-1.27
2022-12-11T20:27:16.678Z,-1.25
2022-12-11T20:29:46.936Z,-1.27
2022-12-11T20:32:17.152Z,-1.35
2022-12-11T20:34:47.423Z,-1.22
2022-12-11T20:37:17.679Z,-1.21
2022-12-11T20:39:48.508Z,-1.18
2022-12-11T20:42:19.532Z,-1.17
2022-12-11T20:44:55.904Z,-1.15
2022-12-11T20:47:36.016Z,-1.15
2022-12-11T20:50:06.585Z,-1.13
2022-12-11T20:52:38.999Z,-1.06
2022-12-11T20:55:10.087Z,-1.10
2022-12-11T20:57:45.078Z,-1.13
2022-12-11T21:00:16.896Z,-1.10
2022-12-11T21:02:50.268Z,-1.13
2022-12-11T21:05:20.613Z,-1.21
2022-12-11T21:07:54.270Z,-1.14
2022-12-11T21:10:27.391Z,-1.19
2022-12-11T21:12:57.668Z,-1.06
2022-12-11T21:15:28.345Z,-1.12
2022-12-11T21:17:58.561Z,-1.19
2022-12-11T21:20:28.791Z,-1.06
2022-12-11T21:22:59.100Z,-1.04
2022-12-11T21:25:29.468Z,-1.11
2022-12-11T21:27:59.656Z,-1.00
2022-12-11T21:30:29.887Z,-1.03
2022-12-11T21:33:01.131Z,-0.99
2022-12-11T21:35:31.418Z,-1.02
2022-12-11T21:38:02.272Z,-0.91
2022-12-11T21:40:32.563Z,-1.05
2022-12-11T21:43:02.697Z,-0.96
2022-12-11T21:48:26.651Z,-0.89
2022-12-11T21:51:08.339Z,-0.90
2022-12-11T21:53:38.698Z,-0.84
2022-12-11T21:56:14.863Z,-0.79
2022-12-11T21:58:45.816Z,-0.78
2022-12-11T22:01:31.548Z,-0.84
2022-12-11T22:04:02.264Z,-0.81
2022-12-11T22:06:32.633Z,-0.86
2022-12-11T22:09:03.939Z,-0.85
2022-12-11T22:11:35.561Z,-0.81
2022-12-11T22:14:07.059Z,-0.70
2022-12-11T22:16:37.292Z,-0.71
2022-12-11T22:19:07.614Z,-0.73
2022-12-11T22:21:38.284Z,-0.69
2022-12-11T22:24:08.857Z,-0.73
2022-12-11T22:26:39.458Z,-0.69
2022-12-11T22:29:09.771Z,-0.79
2022-12-11T22:31:39.890Z,-0.62
2022-12-11T22:34:10.144Z,-0.71
2022-12-11T22:36:40.311Z,-0.60
2022-12-11T22:39:10.493Z,-0.72
2022-12-11T22:41:42.165Z,-0.67
2022-12-11T22:44:21.230Z,-0.57
2022-12-11T22:46:51.729Z,-0.61
2022-12-11T22:49:22.013Z,-0.58
2022-12-11T22:51:52.182Z,-0.56
2022-12-11T22:54:22.415Z,-0.67
2022-12-11T22:56:52.629Z,-0.58
2022-12-11T22:59:23.335Z,-0.53
2022-12-11T23:01:53.763Z,-0.54
2022-12-11T23:04:23.899Z,-0.46
2022-12-11T23:06:54.450Z,-0.45
2022-12-11T23:09:24.751Z,-0.51
2022-12-11T23:11:56.068Z,-0.46
2022-12-11T23:14:26.569Z,-0.57
2022-12-11T23:16:57.471Z,-0.44
2022-12-11T23:19:28.049Z,-0.47
2022-12-11T23:21:58.422Z,-0.44
2022-12-11T23:24:29.198Z,-0.39
2022-12-11T23:27:00.550Z,-0.39
2022-12-11T23:29:31.060Z,-0.44
2022-12-11T23:32:01.470Z,-0.34
2022-12-11T23:34:31.676Z,-0.33
2022-12-11T23:37:02.398Z,-0.39
2022-12-11T23:39:32.817Z,-0.37
2022-12-11T23:42:03.183Z,-0.27
2022-12-11T23:44:33.666Z,-0.24
2022-12-11T23:47:03.931Z,-0.23
2022-12-11T23:49:34.250Z,-0.25
2022-12-11T23:52:04.687Z,-0.24
2022-12-11T23:54:35.351Z,-0.25
2022-12-11T23:57:05.575Z,-0.29
2022-12-11T23:59:37.076Z,-0.17
